| time (UTC) | temp F | wind direction | speed MPH | gust MPH | rain 1hr in | rain 24hr in | rain mn in | humidity % | barometer mb |
| 20260507072308 | 50 | 55 | 0.0 | 13.0 | 0.00 | 0.00 | 0.01 | 95 | 320.1 |
| 20260507071808 | 50 | 55 | 0.0 | 13.0 | 0.00 | 0.00 | 0.01 | 95 | 318.9 |
| 20260507071307 | 50 | 55 | 0.0 | 13.0 | 0.00 | 0.00 | 0.01 | 95 | 317.0 |
| 20260507070806 | 50 | 53 | 0.0 | 13.0 | 0.00 | 0.00 | 0.01 | 95 | 313.6 |
| 20260507070305 | 50 | 53 | 0.0 | 13.0 | 0.00 | 0.00 | 0.01 | 95 | 313.5 |
| 20260507065248 | 50 | 53 | 0.0 | 13.0 | 0.00 | 0.00 | 0.01 | 95 | 314.9 |
| 20260507064747 | 50 | 53 | 0.0 | 13.0 | 0.00 | 0.00 | 0.01 | 95 | 315.0 |
| 20260507064246 | 50 | 53 | 0.0 | 13.0 | 0.00 | 0.00 | 0.01 | 95 | 314.9 |
| 20260507063745 | 50 | 53 | 0.0 | 13.0 | 0.00 | 0.00 | 0.01 | 94 | 314.8 |
| 20260507063244 | 50 | 53 | 0.0 | 13.0 | 0.00 | 0.00 | 0.01 | 94 | 314.7 |
| 20260507062744 | 50 | 53 | 0.0 | 13.0 | 0.00 | 0.00 | 0.01 | 94 | 314.6 |
| 20260507062243 | 50 | 53 | 0.0 | 13.0 | 0.00 | 0.00 | 0.01 | 94 | 314.3 |
| 20260507061742 | 50 | 53 | 0.0 | 13.0 | 0.00 | 0.00 | 0.01 | 94 | 313.6 |
| 20260507061241 | 51 | 53 | 0.0 | 13.0 | 0.00 | 0.00 | 0.01 | 94 | 312.7 |
| 20260507060740 | 51 | 53 | 0.0 | 13.0 | 0.00 | 0.00 | 0.01 | 94 | 311.3 |
| 20260507055723 | 51 | 47 | 0.0 | 13.0 | 0.00 | 0.00 | 0.01 | 95 | 307.9 |
| 20260507054706 | 51 | 48 | 0.0 | 13.0 | 0.00 | 0.00 | 0.01 | 94 | 332.1 |
| 20260507054205 | 51 | 67 | 0.0 | 13.0 | 0.00 | 0.00 | 0.01 | 94 | 366.7 |
| 20260507053148 | 51 | 71 | 0.0 | 13.0 | 0.00 | 0.00 | 0.01 | 94 | 374.8 |
| 20260507052647 | 51 | 75 | 0.0 | 13.0 | 0.00 | 0.00 | 0.01 | 94 | 378.8 |
| 20260507052146 | 51 | 75 | 0.0 | 13.0 | 0.00 | 0.00 | 0.01 | 94 | 376.8 |
| 20260507051645 | 51 | 74 | 0.0 | 13.0 | 0.00 | 0.00 | 0.01 | 94 | 373.0 |
| 20260507051144 | 52 | 74 | 0.0 | 13.0 | 0.01 | 0.00 | 0.01 | 94 | 366.6 |
| 20260507050643 | 52 | 75 | 0.0 | 13.0 | 0.01 | 0.00 | 0.01 | 94 | 353.3 |
| 20260507050142 | 52 | 55 | 0.0 | 13.0 | 0.01 | 0.00 | 0.01 | 94 | 322.0 |
| 20260507045641 | 52 | 54 | 0.0 | 13.0 | 0.03 | 0.00 | 0.01 | 94 | 321.7 |
| 20260507045140 | 52 | 54 | 0.0 | 13.0 | 0.03 | 0.00 | 0.01 | 94 | 322.7 |
| 20260507044639 | 52 | 54 | 0.0 | 13.0 | 0.03 | 0.00 | 0.01 | 93 | 324.6 |
| 20260507044138 | 52 | 54 | 0.0 | 13.0 | 0.03 | 0.00 | 0.01 | 93 | 328.8 |
| 20260507043637 | 53 | 54 | 0.0 | 13.0 | 0.04 | 0.00 | 0.01 | 93 | 336.5 |
| 20260507043136 | 53 | 54 | 0.0 | 13.0 | 0.05 | 0.00 | 0.01 | 93 | 350.9 |
| 20260507042635 | 54 | 54 | 0.0 | 13.0 | 0.05 | 0.00 | 0.01 | 93 | 377.9 |
| 20260507041618 | 54 | 100 | 0.0 | 13.0 | 0.05 | 0.00 | 0.01 | 95 | 458.3 |
| 20260507041117 | 55 | 100 | 0.0 | 13.0 | 0.04 | 0.00 | 0.00 | 95 | 460.2 |
| 20260507040616 | 55 | 101 | 0.0 | 13.0 | 0.04 | 0.00 | 0.00 | 95 | 460.5 |
| 20260507040115 | 55 | 101 | 0.0 | 13.0 | 0.04 | 0.00 | 0.00 | 95 | 460.2 |
| 20260507035614 | 55 | 101 | 0.0 | 13.0 | 0.04 | 0.00 | 0.14 | 94 | 460.3 |
| 20260507034558 | 55 | 101 | 0.0 | 13.0 | 0.02 | 0.00 | 0.12 | 94 | 461.3 |
| 20260507034057 | 55 | 101 | 0.0 | 13.0 | 0.02 | 0.00 | 0.12 | 94 | 461.8 |
| 20260507033557 | 55 | 102 | 0.0 | 13.0 | 0.02 | 0.00 | 0.12 | 94 | 463.1 |
| 20260507033056 | 56 | 102 | 0.0 | 13.0 | 0.01 | 0.00 | 0.11 | 94 | 463.9 |
| 20260507032555 | 56 | 102 | 0.0 | 13.0 | 0.00 | 0.00 | 0.09 | 94 | 465.0 |
| 20260507032054 | 56 | 102 | 0.0 | 13.0 | 0.00 | 0.00 | 0.09 | 94 | 466.1 |
| 20260507031553 | 56 | 102 | 0.0 | 13.0 | 0.00 | 0.00 | 0.09 | 94 | 467.8 |
| 20260507031052 | 56 | 102 | 0.0 | 13.0 | 0.00 | 0.00 | 0.09 | 94 | 470.2 |
| 20260507030035 | 57 | 103 | 0.0 | 13.0 | 0.00 | 0.00 | 0.09 | 94 | 483.5 |
| 20260507025534 | 57 | 106 | 0.0 | 13.0 | 0.00 | 0.00 | 0.09 | 94 | 498.1 |
| 20260507025033 | 58 | 105 | 0.0 | 13.0 | 0.00 | 0.00 | 0.09 | 95 | 519.0 |
| 20260507024532 | 58 | 105 | 0.0 | 13.0 | 0.00 | 0.00 | 0.09 | 96 | 563.9 |
| 20260507024031 | 58 | 106 | 0.0 | 13.0 | 0.00 | 0.00 | 0.09 | 96 | 656.9 |
| 20260507023531 | 58 | 201 | 0.0 | 13.0 | 0.00 | 0.00 | 0.09 | 96 | 760.5 |
| 20260507023030 | 58 | 201 | 0.0 | 13.0 | 0.00 | 0.00 | 0.09 | 96 | 760.0 |
| 20260507022529 | 58 | 202 | 0.0 | 13.0 | 0.00 | 0.00 | 0.09 | 96 | 762.1 |
| 20260507022029 | 58 | 202 | 0.0 | 13.0 | 0.00 | 0.00 | 0.09 | 96 | 761.2 |
| 20260507021528 | 58 | 202 | 0.0 | 13.0 | 0.00 | 0.00 | 0.09 | 96 | 760.7 |
| 20260507021027 | 58 | 202 | 1.0 | 13.0 | 0.00 | 0.00 | 0.09 | 96 | 759.7 |
| 20260507020526 | 58 | 201 | 0.0 | 13.0 | 0.00 | 0.00 | 0.09 | 96 | 760.0 |
| 20260507020025 | 57 | 201 | 0.0 | 13.0 | 0.00 | 0.00 | 0.09 | 96 | 760.7 |
| 20260507015524 | 57 | 200 | 0.0 | 13.0 | 0.00 | 0.00 | 0.09 | 96 | 760.8 |
| 20260507015023 | 57 | 201 | 0.0 | 13.0 | 0.00 | 0.00 | 0.09 | 96 | 762.7 |
| 20260507014522 | 57 | 203 | 0.0 | 13.0 | 0.00 | 0.00 | 0.09 | 96 | 765.8 |
| 20260507014021 | 57 | 203 | 0.0 | 13.0 | 0.00 | 0.00 | 0.09 | 96 | 767.6 |
| 20260507013520 | 57 | 204 | 0.0 | 13.0 | 0.00 | 0.00 | 0.09 | 96 | 770.2 |
| 20260507012504 | 57 | 207 | 1.0 | 13.0 | 0.00 | 0.00 | 0.09 | 96 | 777.9 |
| 20260507012003 | 57 | 207 | 0.0 | 13.0 | 0.00 | 0.00 | 0.09 | 96 | 777.0 |
| 20260507011502 | 57 | 207 | 0.0 | 13.0 | 0.00 | 0.00 | 0.09 | 96 | 776.2 |
| 20260507011001 | 57 | 206 | 1.0 | 13.0 | 0.00 | 0.00 | 0.09 | 96 | 776.7 |
| 20260507010500 | 57 | 206 | 0.0 | 13.0 | 0.00 | 0.00 | 0.09 | 95 | 778.9 |
| 20260507005959 | 57 | 208 | 0.0 | 13.0 | 0.00 | 0.00 | 0.09 | 95 | 780.4 |
| 20260507005458 | 57 | 207 | 1.0 | 13.0 | 0.00 | 0.00 | 0.09 | 96 | 781.6 |
| 20260507004957 | 57 | 207 | 1.0 | 13.0 | 0.00 | 0.00 | 0.09 | 95 | 787.4 |
| 20260507003940 | 57 | 211 | 1.0 | 13.0 | 0.00 | 0.00 | 0.09 | 95 | 772.8 |
| 20260507003439 | 57 | 218 | 0.0 | 13.0 | 0.00 | 0.00 | 0.09 | 95 | 754.8 |
| 20260507002938 | 57 | 162 | 1.0 | 13.0 | 0.00 | 0.00 | 0.09 | 95 | 692.9 |
| 20260507002437 | 57 | 157 | 1.0 | 13.0 | 0.00 | 0.00 | 0.09 | 95 | 737.8 |
| 20260507001420 | 57 | 204 | 1.0 | 13.0 | 0.00 | 0.00 | 0.09 | 95 | 780.6 |
| 20260507000919 | 57 | 206 | 0.0 | 13.0 | 0.00 | 0.00 | 0.09 | 95 | 785.9 |
| 20260507000420 | 57 | 212 | 1.0 | 13.0 | 0.00 | 0.00 | 0.09 | 95 | 797.4 |
| 20260506235918 | 57 | 213 | 1.0 | 13.0 | 0.00 | 0.00 | 0.09 | 95 | 803.0 |
| 20260506235417 | 57 | 223 | 0.0 | 13.0 | 0.00 | 0.00 | 0.09 | 95 | 803.3 |
| 20260506234916 | 57 | 224 | 0.0 | 13.0 | 0.00 | 0.00 | 0.09 | 95 | 779.8 |
| 20260506234415 | 57 | 190 | 0.0 | 13.0 | 0.00 | 0.00 | 0.09 | 95 | 740.5 |
| 20260506233914 | 57 | 198 | 2.0 | 13.0 | 0.00 | 0.00 | 0.09 | 94 | 743.0 |
| 20260506233415 | 57 | 197 | 0.0 | 13.0 | 0.00 | 0.00 | 0.09 | 94 | 735.5 |
| 20260506232913 | 57 | 183 | 0.0 | 13.0 | 0.00 | 0.00 | 0.09 | 94 | 737.7 |
| 20260506232412 | 58 | 200 | 1.0 | 13.0 | 0.01 | 0.00 | 0.09 | 94 | 772.1 |
| 20260506231911 | 58 | 207 | 1.0 | 13.0 | 0.01 | 0.00 | 0.09 | 94 | 769.0 |
| 20260506231410 | 58 | 197 | 1.0 | 13.0 | 0.01 | 0.00 | 0.09 | 94 | 757.9 |
| 20260506230909 | 58 | 194 | 2.0 | 13.0 | 0.01 | 0.00 | 0.09 | 94 | 768.8 |
| 20260506230408 | 58 | 207 | 0.0 | 13.0 | 0.02 | 0.00 | 0.09 | 94 | 794.7 |
| 20260506225908 | 58 | 210 | 0.0 | 13.0 | 0.02 | 0.00 | 0.09 | 94 | 810.3 |
| 20260506225407 | 58 | 207 | 2.0 | 13.0 | 0.02 | 0.00 | 0.09 | 94 | 835.8 |
| 20260506224907 | 58 | 248 | 2.0 | 13.0 | 0.01 | 0.00 | 0.09 | 94 | 889.1 |
| 20260506224407 | 58 | 256 | 1.0 | 13.0 | 0.01 | 0.00 | 0.09 | 94 | 898.9 |
| 20260506223350 | 58 | 206 | 1.0 | 13.0 | 0.03 | 0.00 | 0.09 | 94 | 797.9 |
| 20260506222849 | 58 | 216 | 0.0 | 13.0 | 0.03 | 0.00 | 0.09 | 94 | 825.2 |
| 20260506221316 | 58 | 189 | 2.0 | 13.0 | 0.01 | 0.00 | 0.08 | 94 | 769.6 |
| 20260506220815 | 58 | 212 | 2.0 | 13.0 | 0.03 | 0.00 | 0.08 | 94 | 801.9 |
| 20260506220315 | 58 | 209 | 0.0 | 13.0 | 0.02 | 0.00 | 0.07 | 94 | 817.2 |
| 20260506215814 | 58 | 252 | 2.0 | 13.0 | 0.03 | 0.00 | 0.07 | 94 | 835.6 |
| 20260506215312 | 58 | 214 | 0.0 | 13.0 | 0.03 | 0.00 | 0.07 | 94 | 786.7 |
| 20260506214812 | 58 | 164 | 2.0 | 13.0 | 0.03 | 0.00 | 0.07 | 94 | 782.2 |
| 20260506214310 | 58 | 234 | 1.0 | 13.0 | 0.03 | 0.00 | 0.07 | 94 | 818.9 |
| 20260506213254 | 58 | 223 | 2.0 | 13.0 | 0.01 | 0.00 | 0.06 | 94 | 827.5 |
| 20260506212753 | 58 | 225 | 0.0 | 13.0 | 0.01 | 0.00 | 0.06 | 94 | 835.6 |
| 20260506212252 | 58 | 239 | 0.0 | 13.0 | 0.01 | 0.00 | 0.06 | 94 | 824.6 |
| 20260506211751 | 58 | 200 | 1.0 | 13.0 | 0.01 | 0.00 | 0.06 | 94 | 771.9 |
| 20260506211250 | 58 | 203 | 2.0 | 13.0 | 0.01 | 0.00 | 0.06 | 93 | 789.6 |
| 20260506210749 | 58 | 221 | 1.0 | 13.0 | 0.00 | 0.00 | 0.04 | 93 | 809.1 |
| 20260506210248 | 58 | 211 | 0.0 | 13.0 | 0.00 | 0.00 | 0.04 | 93 | 806.0 |
| 20260506205747 | 58 | 206 | 1.0 | 13.0 | 0.00 | 0.00 | 0.04 | 93 | 818.6 |
| 20260506205246 | 58 | 213 | 2.0 | 13.0 | 0.00 | 0.00 | 0.04 | 93 | 847.0 |
| 20260506204745 | 58 | 259 | 0.0 | 13.0 | 0.00 | 0.00 | 0.04 | 93 | 851.4 |
| 20260506203729 | 58 | 192 | 1.0 | 13.0 | 0.00 | 0.00 | 0.04 | 93 | 747.8 |
| 20260506203228 | 58 | 199 | 3.0 | 13.0 | 0.00 | 0.00 | 0.04 | 93 | 775.8 |
| 20260506202727 | 58 | 184 | 3.0 | 13.0 | 0.00 | 0.00 | 0.04 | 93 | 803.5 |
| 20260506201154 | 58 | 217 | 3.0 | 13.0 | 0.00 | 0.00 | 0.04 | 92 | 795.2 |
| 20260506200137 | 58 | 183 | 1.0 | 13.0 | 0.01 | 0.00 | 0.04 | 92 | 761.8 |
| 20260506195636 | 58 | 198 | 3.0 | 13.0 | 0.02 | 0.00 | 0.04 | 92 | 784.0 |
| 20260506195135 | 58 | 218 | 3.0 | 13.0 | 0.02 | 0.00 | 0.04 | 92 | 775.3 |
| 20260506194634 | 58 | 169 | 1.0 | 13.0 | 0.02 | 0.00 | 0.04 | 92 | 740.3 |
| 20260506194133 | 58 | 199 | 1.0 | 13.0 | 0.02 | 0.00 | 0.04 | 92 | 783.8 |
| 20260506193632 | 58 | 207 | 4.0 | 13.0 | 0.02 | 0.00 | 0.04 | 91 | 787.0 |
| 20260506193131 | 58 | 200 | 3.0 | 11.0 | 0.03 | 0.00 | 0.04 | 91 | 781.4 |
| 20260506192630 | 58 | 209 | 2.0 | 11.0 | 0.04 | 0.00 | 0.04 | 92 | 779.1 |
| 20260506192129 | 58 | 215 | 1.0 | 11.0 | 0.04 | 0.00 | 0.04 | 92 | 777.9 |
| 20260506191628 | 58 | 214 | 2.0 | 11.0 | 0.04 | 0.00 | 0.04 | 92 | 779.8 |
| 20260506191127 | 59 | 206 | 5.0 | 11.0 | 0.04 | 0.00 | 0.04 | 91 | 751.6 |
| 20260506190626 | 59 | 207 | 3.0 | 11.0 | 0.03 | 0.00 | 0.03 | 91 | 784.4 |
| 20260506185609 | 59 | 210 | 0.0 | 11.0 | 0.03 | 0.00 | 0.03 | 91 | 790.3 |
| 20260506185108 | 59 | 213 | 2.0 | 11.0 | 0.02 | 0.00 | 0.02 | 90 | 797.3 |
| 20260506184607 | 59 | 220 | 1.0 | 11.0 | 0.02 | 0.00 | 0.02 | 90 | 792.1 |
| 20260506184106 | 59 | 214 | 2.0 | 11.0 | 0.02 | 0.00 | 0.02 | 89 | 780.3 |
| 20260506183606 | 60 | 191 | 0.0 | 11.0 | 0.02 | 0.00 | 0.02 | 89 | 766.8 |
| 20260506182551 | 61 | 215 | 0.0 | 11.0 | 0.01 | 0.00 | 0.01 | 89 | 794.5 |
| 20260506182050 | 61 | 216 | 1.0 | 11.0 | 0.00 | 0.00 | 0.00 | 87 | 792.2 |
| 20260506181549 | 61 | 216 | 2.0 | 11.0 | 0.00 | 0.00 | 0.00 | 86 | 785.3 |
| 20260506181049 | 62 | 216 | 1.0 | 11.0 | 0.00 | 0.00 | 0.00 | 86 | 772.1 |
| 20260506180548 | 62 | 203 | 1.0 | 11.0 | 0.00 | 0.00 | 0.00 | 85 | 741.9 |
| 20260506180047 | 62 | 194 | 0.0 | 11.0 | 0.00 | 0.00 | 0.00 | 84 | 732.8 |
| 20260506175031 | 63 | 193 | 0.0 | 11.0 | 0.00 | 0.00 | 0.00 | 82 | 727.5 |
| 20260506174015 | 64 | 199 | 0.0 | 11.0 | 0.00 | 0.00 | 0.00 | 78 | 763.4 |
| 20260506173514 | 65 | 210 | 2.0 | 11.0 | 0.00 | 0.00 | 0.00 | 75 | 785.5 |
| 20260506173013 | 65 | 208 | 0.0 | 11.0 | 0.00 | 0.00 | 0.00 | 75 | 791.1 |
| 20260506171440 | 67 | 281 | 5.0 | 13.0 | 0.00 | 0.00 | 0.00 | 65 | 845.1 |
| 20260506170939 | 68 | 223 | 4.0 | 11.0 | 0.00 | 0.00 | 0.00 | 64 | 819.9 |
| 20260506170438 | 68 | 221 | 5.0 | 12.0 | 0.00 | 0.00 | 0.00 | 63 | 816.8 |
| 20260506165937 | 68 | 208 | 4.0 | 12.0 | 0.00 | 0.00 | 0.00 | 62 | 821.1 |
| 20260506164920 | 69 | 224 | 2.0 | 14.0 | 0.00 | 0.00 | 0.00 | 62 | 827.5 |
| 20260506164419 | 69 | 222 | 2.0 | 12.0 | 0.00 | 0.00 | 0.00 | 62 | 815.3 |
| 20260506163918 | 68 | 208 | 4.0 | 12.0 | 0.00 | 0.00 | 0.00 | 61 | 784.5 |
| 20260506163417 | 68 | 207 | 5.0 | 12.0 | 0.00 | 0.00 | 0.00 | 61 | 785.6 |
| 20260506162916 | 69 | 188 | 5.0 | 12.0 | 0.00 | 0.00 | 0.00 | 61 | 798.9 |
| 20260506161859 | 69 | 201 | 6.0 | 14.0 | 0.00 | 0.00 | 0.00 | 60 | 786.3 |
| 20260506160326 | 70 | 213 | 2.0 | 12.0 | 0.00 | 0.00 | 0.00 | 60 | 792.5 |
| 20260506155309 | 70 | 194 | 5.0 | 18.0 | 0.00 | 0.00 | 0.00 | 59 | 802.0 |
| 20260506154808 | 70 | 221 | 3.0 | 12.0 | 0.00 | 0.00 | 0.00 | 60 | 858.0 |
| 20260506154307 | 70 | 245 | 2.0 | 14.0 | 0.00 | 0.00 | 0.00 | 60 | 808.6 |
| 20260506153806 | 70 | 190 | 5.0 | 14.0 | 0.00 | 0.00 | 0.00 | 58 | 762.1 |
| 20260506153305 | 70 | 207 | 0.0 | 14.0 | 0.00 | 0.00 | 0.00 | 59 | 778.8 |
| 20260506152804 | 70 | 224 | 3.0 | 14.0 | 0.00 | 0.00 | 0.00 | 60 | 792.8 |
| 20260506151747 | 70 | 228 | 1.0 | 11.0 | 0.00 | 0.00 | 0.00 | 61 | 818.8 |
| 20260506151246 | 69 | 230 | 3.0 | 11.0 | 0.00 | 0.00 | 0.00 | 62 | 868.5 |
| 20260506150745 | 69 | 220 | 3.0 | 11.0 | 0.00 | 0.00 | 0.00 | 62 | 783.3 |
| 20260506150244 | 69 | 193 | 3.0 | 11.0 | 0.00 | 0.00 | 0.00 | 62 | 792.4 |
| 20260506145743 | 69 | 236 | 3.0 | 11.0 | 0.00 | 0.00 | 0.00 | 62 | 823.8 |
| 20260506145242 | 69 | 225 | 3.0 | 11.0 | 0.00 | 0.00 | 0.00 | 63 | 809.8 |
| 20260506144741 | 68 | 232 | 3.0 | 11.0 | 0.00 | 0.00 | 0.00 | 64 | 796.3 |
| 20260506144240 | 68 | 198 | 3.0 | 11.0 | 0.00 | 0.00 | 0.00 | 64 | 765.9 |
| 20260506143223 | 67 | 145 | 3.0 | 15.0 | 0.00 | 0.00 | 0.00 | 66 | 741.4 |
| 20260506142722 | 67 | 208 | 2.0 | 15.0 | 0.00 | 0.00 | 0.00 | 67 | 830.5 |
| 20260506142221 | 67 | 232 | 4.0 | 11.0 | 0.00 | 0.00 | 0.00 | 67 | 867.3 |
| 20260506141720 | 67 | 271 | 0.0 | 11.0 | 0.00 | 0.00 | 0.00 | 67 | 907.9 |
| 20260506141219 | 67 | 290 | 0.0 | 11.0 | 0.00 | 0.00 | 0.00 | 67 | 833.2 |
| 20260506140718 | 67 | 167 | 1.0 | 11.0 | 0.00 | 0.00 | 0.00 | 68 | 728.3 |
| 20260506140217 | 66 | 202 | 3.0 | 11.0 | 0.00 | 0.00 | 0.00 | 69 | 758.6 |
| 20260506135716 | 66 | 186 | 3.0 | 11.0 | 0.00 | 0.00 | 0.00 | 69 | 794.4 |
| 20260506135215 | 66 | 260 | 2.0 | 11.0 | 0.00 | 0.00 | 0.00 | 68 | 837.9 |
| 20260506134158 | 66 | 210 | 3.0 | 12.0 | 0.00 | 0.00 | 0.00 | 70 | 782.1 |
| 20260506133141 | 65 | 220 | 1.0 | 11.0 | 0.00 | 0.00 | 0.00 | 72 | 804.2 |
| 20260506132640 | 65 | 245 | 3.0 | 12.0 | 0.00 | 0.00 | 0.00 | 73 | 790.2 |
| 20260506132139 | 64 | 215 | 4.0 | 12.0 | 0.00 | 0.00 | 0.00 | 73 | 775.5 |
| 20260506131122 | 64 | 196 | 3.0 | 11.0 | 0.00 | 0.00 | 0.00 | 75 | 766.1 |
| 20260506130621 | 63 | 213 | 4.0 | 13.0 | 0.00 | 0.00 | 0.00 | 75 | 768.3 |
| 20260506130120 | 63 | 187 | 1.0 | 13.0 | 0.00 | 0.00 | 0.00 | 77 | 808.7 |
| 20260506125619 | 63 | 240 | 2.0 | 13.0 | 0.00 | 0.00 | 0.00 | 78 | 825.0 |
| 20260506125119 | 62 | 201 | 3.0 | 13.0 | 0.00 | 0.00 | 0.00 | 78 | 787.3 |
| 20260506124617 | 62 | 219 | 1.0 | 13.0 | 0.00 | 0.00 | 0.00 | 80 | 789.9 |
| 20260506124116 | 61 | 209 | 1.0 | 13.0 | 0.00 | 0.00 | 0.00 | 80 | 789.7 |
| 20260506123615 | 61 | 202 | 2.0 | 13.0 | 0.00 | 0.00 | 0.00 | 80 | 788.7 |
| 20260506122044 | 61 | 256 | 2.0 | 13.0 | 0.00 | 0.00 | 0.00 | 80 | 820.5 |
| 20260506121543 | 61 | 217 | 0.0 | 13.0 | 0.00 | 0.00 | 0.00 | 81 | 776.9 |
| 20260506121042 | 60 | 205 | 1.0 | 13.0 | 0.00 | 0.00 | 0.00 | 81 | 759.5 |
| 20260506120541 | 60 | 210 | 3.0 | 13.0 | 0.00 | 0.00 | 0.00 | 81 | 759.1 |
| 20260506120040 | 60 | 172 | 2.0 | 13.0 | 0.00 | 0.00 | 0.00 | 81 | 728.0 |
| 20260506115540 | 60 | 208 | 2.0 | 13.0 | 0.00 | 0.00 | 0.00 | 81 | 757.5 |
| 20260506114523 | 60 | 213 | 1.0 | 13.0 | 0.00 | 0.00 | 0.00 | 83 | 703.1 |
| 20260506114023 | 59 | 150 | 0.0 | 13.0 | 0.00 | 0.00 | 0.00 | 84 | 673.6 |
| 20260506113522 | 59 | 167 | 2.0 | 13.0 | 0.00 | 0.00 | 0.00 | 84 | 742.2 |
| 20260506113021 | 59 | 205 | 2.0 | 13.0 | 0.00 | 0.00 | 0.00 | 85 | 767.4 |
| 20260506112520 | 58 | 205 | 1.0 | 13.0 | 0.00 | 0.00 | 0.00 | 86 | 783.8 |
| 20260506111504 | 58 | 208 | 1.0 | 13.0 | 0.00 | 0.00 | 0.00 | 85 | 800.3 |
| 20260506111004 | 58 | 214 | 1.0 | 13.0 | 0.00 | 0.00 | 0.00 | 85 | 786.9 |
| 20260506105947 | 58 | 230 | 2.0 | 13.0 | 0.00 | 0.00 | 0.00 | 86 | 799.2 |
| 20260506104930 | 57 | 243 | 1.0 | 13.0 | 0.00 | 0.00 | 0.00 | 86 | 851.4 |
| 20260506104429 | 57 | 228 | 1.0 | 13.0 | 0.00 | 0.00 | 0.00 | 86 | 845.5 |
| 20260506103929 | 57 | 243 | 0.0 | 13.0 | 0.00 | 0.00 | 0.00 | 86 | 860.5 |
| 20260506103428 | 57 | 245 | 1.0 | 13.0 | 0.00 | 0.00 | 0.00 | 86 | 853.9 |
| 20260506102927 | 57 | 227 | 2.0 | 13.0 | 0.00 | 0.00 | 0.00 | 86 | 872.3 |
| 20260506102426 | 57 | 272 | 1.0 | 13.0 | 0.00 | 0.00 | 0.00 | 86 | 866.9 |
| 20260506101925 | 57 | 225 | 2.0 | 13.0 | 0.00 | 0.00 | 0.00 | 86 | 805.8 |
| 20260506101424 | 57 | 216 | 3.0 | 13.0 | 0.00 | 0.00 | 0.00 | 86 | 780.2 |
| 20260506100407 | 57 | 202 | 1.0 | 13.0 | 0.00 | 0.00 | 0.00 | 86 | 776.5 |
| 20260506095906 | 57 | 212 | 1.0 | 13.0 | 0.00 | 0.00 | 0.00 | 86 | 782.7 |
| 20260506095405 | 57 | 207 | 0.0 | 13.0 | 0.00 | 0.00 | 0.00 | 85 | 774.8 |
| 20260506094904 | 57 | 208 | 2.0 | 13.0 | 0.00 | 0.00 | 0.00 | 85 | 764.4 |
| 20260506094403 | 57 | 224 | 1.0 | 13.0 | 0.00 | 0.00 | 0.00 | 85 | 773.9 |
| 20260506093902 | 57 | 183 | 2.0 | 13.0 | 0.00 | 0.00 | 0.00 | 85 | 727.5 |
| 20260506093401 | 57 | 173 | 1.0 | 13.0 | 0.00 | 0.00 | 0.00 | 85 | 759.8 |
| 20260506092900 | 57 | 244 | 0.0 | 13.0 | 0.00 | 0.00 | 0.00 | 84 | 848.7 |
| 20260506092359 | 57 | 224 | 3.0 | 13.0 | 0.00 | 0.00 | 0.00 | 84 | 804.9 |
| 20260506091858 | 58 | 201 | 3.0 | 13.0 | 0.00 | 0.00 | 0.00 | 84 | 781.0 |
| 20260506091357 | 58 | 214 | 2.0 | 13.0 | 0.00 | 0.00 | 0.00 | 84 | 788.8 |
| 20260506090857 | 58 | 213 | 2.0 | 13.0 | 0.00 | 0.00 | 0.00 | 84 | 776.7 |
| 20260506090356 | 58 | 210 | 1.0 | 11.0 | 0.00 | 0.00 | 0.00 | 83 | 803.0 |
| 20260506085856 | 58 | 220 | 3.0 | 11.0 | 0.00 | 0.00 | 0.00 | 83 | 827.7 |
| 20260506085355 | 58 | 225 | 1.0 | 11.0 | 0.00 | 0.00 | 0.00 | 83 | 824.1 |
| 20260506084854 | 58 | 232 | 1.0 | 11.0 | 0.00 | 0.00 | 0.00 | 82 | 810.5 |
| 20260506084353 | 58 | 206 | 1.0 | 11.0 | 0.00 | 0.00 | 0.00 | 82 | 783.9 |
| 20260506083852 | 58 | 203 | 2.0 | 11.0 | 0.00 | 0.00 | 0.00 | 82 | 777.9 |
| 20260506083351 | 58 | 229 | 1.0 | 11.0 | 0.00 | 0.00 | 0.00 | 82 | 803.3 |
| 20260506082850 | 58 | 222 | 3.0 | 11.0 | 0.00 | 0.00 | 0.00 | 82 | 788.5 |
| 20260506082349 | 58 | 207 | 2.0 | 11.0 | 0.00 | 0.00 | 0.00 | 82 | 779.9 |
| 20260506081848 | 58 | 205 | 1.0 | 11.0 | 0.00 | 0.00 | 0.00 | 82 | 769.1 |
| 20260506081347 | 58 | 182 | 2.0 | 11.0 | 0.00 | 0.00 | 0.00 | 81 | 776.5 |
| 20260506080846 | 58 | 218 | 1.0 | 11.0 | 0.00 | 0.00 | 0.00 | 81 | 796.2 |
| 20260506080345 | 58 | 214 | 2.0 | 11.0 | 0.00 | 0.00 | 0.00 | 81 | 789.7 |
| 20260506073326 | 59 | 201 | 2.0 | 11.0 | 0.00 | 0.00 | 0.00 | 80 | 794.7 |
| 20260506072825 | 59 | 251 | 2.0 | 11.0 | 0.00 | 0.00 | 0.00 | 80 | 814.7 |